Valdemoro, Spain
Current Conditions -  °F | °C
As of 2:00 PM on Friday 24 Oct 2014 (Local Time) from LEGT Reporting Station
Clear Clear  
Wind Chill: 75°   Ceiling: Unl
Heat Index: 75°   Visibility: 6mi
Dew Point: 45°   Wind: 2mph
Humidity: 34%   Direction: NA
Pressure: 30.12"   Gusts: NA
Location:  40.19°N, 3.68°W
Report Text: LEGT 241200Z VRB02KT CAVOK 24/07 Q1020
Loading
Personal Weather Stations






























Interactive Weather Map
Tropical Storm Tracking
New forecast layout! Learn more

10-Day Weather Forecast

Advertisements
Track Severe Weather on mobile